sensor_id;sensor_type;location;lat;lon;timestamp;pressure;altitude;pressure_sealevel;temperature;humidity
18795;BME280;29610;49.022;12.114;2023-02-23T00:02:20;97359.22;;;8.00;100.00
18795;BME280;29610;49.022;12.114;2023-02-23T00:04:49;97355.81;;;7.86;100.00
18795;BME280;29610;49.022;12.114;2023-02-23T00:07:17;97359.16;;;7.83;100.00
18795;BME280;29610;49.022;12.114;2023-02-23T00:09:47;97355.31;;;7.84;100.00
18795;BME280;29610;49.022;12.114;2023-02-23T00:12:17;97348.63;;;7.82;100.00
18795;BME280;29610;49.022;12.114;2023-02-23T00:14:48;97352.53;;;7.98;100.00
18795;BME280;29610;49.022;12.114;2023-02-23T00:17:17;97346.81;;;8.08;100.00
18795;BME280;29610;49.022;12.114;2023-02-23T00:19:46;97352.38;;;8.03;100.00
18795;BME280;29610;49.022;12.114;2023-02-23T00:22:15;97351.28;;;8.04;100.00
18795;BME280;29610;49.022;12.114;2023-02-23T00:24:44;97351.41;;;7.99;100.00
18795;BME280;29610;49.022;12.114;2023-02-23T00:27:14;97344.75;;;8.05;100.00
18795;BME280;29610;49.022;12.114;2023-02-23T00:29:50;97358.22;;;7.96;100.00
18795;BME280;29610;49.022;12.114;2023-02-23T00:32:20;97353.47;;;8.02;100.00
18795;BME280;29610;49.022;12.114;2023-02-23T00:34:50;97357.31;;;8.01;100.00
18795;BME280;29610;49.022;12.114;2023-02-23T00:37:19;97348.44;;;8.09;100.00
18795;BME280;29610;49.022;12.114;2023-02-23T00:39:49;97355.75;;;8.08;100.00
18795;BME280;29610;49.022;12.114;2023-02-23T00:42:19;97358.13;;;8.10;100.00
18795;BME280;29610;49.022;12.114;2023-02-23T00:44:47;97352.72;;;8.10;100.00
18795;BME280;29610;49.022;12.114;2023-02-23T00:47:17;97352.63;;;8.23;100.00
18795;BME280;29610;49.022;12.114;2023-02-23T00:49:48;97361.22;;;8.25;100.00
18795;BME280;29610;49.022;12.114;2023-02-23T00:52:18;97362.69;;;8.23;100.00
18795;BME280;29610;49.022;12.114;2023-02-23T00:54:47;97357.75;;;8.25;100.00
18795;BME280;29610;49.022;12.114;2023-02-23T00:57:15;97352.81;;;8.27;100.00
18795;BME280;29610;49.022;12.114;2023-02-23T00:59:44;97358.94;;;8.19;100.00
18795;BME280;29610;49.022;12.114;2023-02-23T01:02:15;97354.28;;;8.02;100.00
18795;BME280;29610;49.022;12.114;2023-02-23T01:04:45;97357.75;;;7.94;100.00
18795;BME280;29610;49.022;12.114;2023-02-23T01:07:13;97365.03;;;7.85;100.00
18795;BME280;29610;49.022;12.114;2023-02-23T01:09:42;97353.56;;;7.80;100.00
18795;BME280;29610;49.022;12.114;2023-02-23T01:12:10;97356.63;;;7.56;100.00
18795;BME280;29610;49.022;12.114;2023-02-23T01:14:43;97360.25;;;7.29;100.00
18795;BME280;29610;49.022;12.114;2023-02-23T01:17:13;97356.31;;;7.13;100.00
18795;BME280;29610;49.022;12.114;2023-02-23T01:19:44;97361.91;;;7.17;100.00
18795;BME280;29610;49.022;12.114;2023-02-23T01:22:13;97356.19;;;7.18;100.00
18795;BME280;29610;49.022;12.114;2023-02-23T01:24:41;97362.09;;;7.20;100.00
18795;BME280;29610;49.022;12.114;2023-02-23T01:27:11;97347.88;;;7.06;100.00
18795;BME280;29610;49.022;12.114;2023-02-23T01:29:39;97359.75;;;7.05;100.00
18795;BME280;29610;49.022;12.114;2023-02-23T01:32:08;97354.94;;;6.80;100.00
18795;BME280;29610;49.022;12.114;2023-02-23T01:34:37;97357.09;;;6.70;100.00
18795;BME280;29610;49.022;12.114;2023-02-23T01:37:07;97359.19;;;6.73;100.00
18795;BME280;29610;49.022;12.114;2023-02-23T01:39:36;97364.94;;;6.80;100.00
18795;BME280;29610;49.022;12.114;2023-02-23T01:42:10;97364.84;;;6.85;100.00
18795;BME280;29610;49.022;12.114;2023-02-23T01:45:22;97359.63;;;6.88;100.00
18795;BME280;29610;49.022;12.114;2023-02-23T01:47:55;97360.75;;;6.87;100.00
18795;BME280;29610;49.022;12.114;2023-02-23T01:50:27;97358.22;;;6.91;100.00
18795;BME280;29610;49.022;12.114;2023-02-23T01:52:59;97355.38;;;6.96;100.00
18795;BME280;29610;49.022;12.114;2023-02-23T01:55:28;97359.72;;;6.97;100.00
18795;BME280;29610;49.022;12.114;2023-02-23T01:58:08;97356.59;;;7.03;100.00
18795;BME280;29610;49.022;12.114;2023-02-23T02:00:49;97355.03;;;7.11;100.00
18795;BME280;29610;49.022;12.114;2023-02-23T02:03:26;97357.75;;;6.75;100.00
18795;BME280;29610;49.022;12.114;2023-02-23T02:05:59;97358.34;;;6.86;100.00
18795;BME280;29610;49.022;12.114;2023-02-23T02:08:33;97356.25;;;6.83;100.00
18795;BME280;29610;49.022;12.114;2023-02-23T02:11:10;97352.22;;;6.58;100.00
18795;BME280;29610;49.022;12.114;2023-02-23T02:13:56;97360.81;;;6.60;100.00
18795;BME280;29610;49.022;12.114;2023-02-23T02:17:14;97362.13;;;6.49;100.00
18795;BME280;29610;49.022;12.114;2023-02-23T02:20:39;97354.44;;;6.43;100.00
18795;BME280;29610;49.022;12.114;2023-02-23T02:23:53;97356.56;;;6.19;100.00
18795;BME280;29610;49.022;12.114;2023-02-23T02:26:49;97353.78;;;6.10;100.00
18795;BME280;29610;49.022;12.114;2023-02-23T02:30:09;97348.78;;;6.17;100.00
18795;BME280;29610;49.022;12.114;2023-02-23T02:33:36;97351.44;;;6.44;100.00
18795;BME280;29610;49.022;12.114;2023-02-23T02:36:56;97353.03;;;6.45;100.00
18795;BME280;29610;49.022;12.114;2023-02-23T02:39:41;97344.63;;;6.47;100.00
18795;BME280;29610;49.022;12.114;2023-02-23T02:42:27;97341.94;;;6.47;100.00
18795;BME280;29610;49.022;12.114;2023-02-23T02:45:06;97351.22;;;6.54;100.00
18795;BME280;29610;49.022;12.114;2023-02-23T02:47:48;97347.78;;;6.62;100.00
18795;BME280;29610;49.022;12.114;2023-02-23T02:50:30;97345.69;;;6.73;100.00
18795;BME280;29610;49.022;12.114;2023-02-23T02:53:07;97343.91;;;6.55;100.00
18795;BME280;29610;49.022;12.114;2023-02-23T02:55:43;97348.22;;;6.56;100.00
18795;BME280;29610;49.022;12.114;2023-02-23T02:58:17;97341.81;;;6.52;100.00
18795;BME280;29610;49.022;12.114;2023-02-23T03:00:49;97352.66;;;6.38;100.00
18795;BME280;29610;49.022;12.114;2023-02-23T03:03:38;97346.34;;;6.43;100.00
18795;BME280;29610;49.022;12.114;2023-02-23T03:06:30;97345.84;;;6.41;100.00
18795;BME280;29610;49.022;12.114;2023-02-23T03:09:34;97354.56;;;6.38;100.00
18795;BME280;29610;49.022;12.114;2023-02-23T03:12:32;97357.66;;;6.31;100.00
18795;BME280;29610;49.022;12.114;2023-02-23T03:15:38;97348.97;;;6.34;100.00
18795;BME280;29610;49.022;12.114;2023-02-23T03:18:51;97359.84;;;6.43;100.00
18795;BME280;29610;49.022;12.114;2023-02-23T03:21:49;97360.03;;;6.46;100.00
18795;BME280;29610;49.022;12.114;2023-02-23T03:24:46;97351.03;;;6.51;100.00
18795;BME280;29610;49.022;12.114;2023-02-23T03:27:45;97356.91;;;6.53;100.00
18795;BME280;29610;49.022;12.114;2023-02-23T03:30:45;97362.03;;;6.41;100.00
18795;BME280;29610;49.022;12.114;2023-02-23T03:33:40;97363.66;;;6.28;100.00
18795;BME280;29610;49.022;12.114;2023-02-23T03:36:35;97368.56;;;6.40;100.00
18795;BME280;29610;49.022;12.114;2023-02-23T03:39:28;97368.56;;;6.40;100.00
18795;BME280;29610;49.022;12.114;2023-02-23T03:42:24;97370.75;;;6.24;100.00
18795;BME280;29610;49.022;12.114;2023-02-23T03:45:17;97367.75;;;6.26;100.00
18795;BME280;29610;49.022;12.114;2023-02-23T03:48:08;97372.75;;;6.32;100.00
18795;BME280;29610;49.022;12.114;2023-02-23T03:51:01;97368.44;;;6.18;100.00
18795;BME280;29610;49.022;12.114;2023-02-23T03:53:53;97369.44;;;6.08;100.00
18795;BME280;29610;49.022;12.114;2023-02-23T03:56:45;97371.84;;;6.10;100.00
18795;BME280;29610;49.022;12.114;2023-02-23T03:59:41;97374.44;;;6.15;100.00
18795;BME280;29610;49.022;12.114;2023-02-23T04:02:41;97373.28;;;6.21;100.00
18795;BME280;29610;49.022;12.114;2023-02-23T04:05:30;97365.97;;;6.35;100.00
18795;BME280;29610;49.022;12.114;2023-02-23T04:08:24;97370.44;;;6.26;100.00
18795;BME280;29610;49.022;12.114;2023-02-23T04:11:20;97366.56;;;6.18;100.00
18795;BME280;29610;49.022;12.114;2023-02-23T04:14:18;97365.75;;;6.18;100.00
18795;BME280;29610;49.022;12.114;2023-02-23T04:16:50;97370.06;;;6.19;100.00
18795;BME280;29610;49.022;12.114;2023-02-23T04:19:18;97372.53;;;6.29;100.00
18795;BME280;29610;49.022;12.114;2023-02-23T04:21:47;97367.44;;;6.27;100.00
18795;BME280;29610;49.022;12.114;2023-02-23T04:24:16;97372.38;;;6.25;100.00
18795;BME280;29610;49.022;12.114;2023-02-23T04:26:44;97385.84;;;6.25;100.00
18795;BME280;29610;49.022;12.114;2023-02-23T04:29:13;97377.25;;;6.23;100.00
18795;BME280;29610;49.022;12.114;2023-02-23T04:31:41;97375.66;;;6.36;100.00
18795;BME280;29610;49.022;12.114;2023-02-23T04:34:12;97375.38;;;6.24;100.00
18795;BME280;29610;49.022;12.114;2023-02-23T04:36:40;97379.44;;;6.35;100.00
18795;BME280;29610;49.022;12.114;2023-02-23T04:39:09;97383.47;;;6.24;100.00
18795;BME280;29610;49.022;12.114;2023-02-23T04:41:37;97380.16;;;6.27;100.00
18795;BME280;29610;49.022;12.114;2023-02-23T04:44:06;97376.75;;;6.21;100.00
18795;BME280;29610;49.022;12.114;2023-02-23T04:46:35;97368.16;;;6.19;100.00
18795;BME280;29610;49.022;12.114;2023-02-23T04:49:03;97378.25;;;6.14;100.00
18795;BME280;29610;49.022;12.114;2023-02-23T04:51:33;97378.34;;;6.09;100.00
18795;BME280;29610;49.022;12.114;2023-02-23T04:54:03;97381.16;;;6.04;100.00
18795;BME280;29610;49.022;12.114;2023-02-23T04:56:32;97386.75;;;6.07;100.00
18795;BME280;29610;49.022;12.114;2023-02-23T04:59:01;97386.53;;;6.04;100.00
18795;BME280;29610;49.022;12.114;2023-02-23T05:01:30;97383.16;;;6.12;100.00
18795;BME280;29610;49.022;12.114;2023-02-23T05:03:59;97391.34;;;5.93;100.00
18795;BME280;29610;49.022;12.114;2023-02-23T05:06:30;97383.47;;;5.97;100.00
18795;BME280;29610;49.022;12.114;2023-02-23T05:09:00;97386.97;;;6.11;100.00
18795;BME280;29610;49.022;12.114;2023-02-23T05:11:31;97390.84;;;6.18;100.00
18795;BME280;29610;49.022;12.114;2023-02-23T05:14:00;97382.34;;;6.11;100.00
18795;BME280;29610;49.022;12.114;2023-02-23T05:16:28;97384.31;;;5.92;100.00
18795;BME280;29610;49.022;12.114;2023-02-23T05:18:58;97390.25;;;6.08;100.00
18795;BME280;29610;49.022;12.114;2023-02-23T05:21:27;97387.75;;;6.25;100.00
18795;BME280;29610;49.022;12.114;2023-02-23T05:23:56;97384.44;;;6.28;100.00
18795;BME280;29610;49.022;12.114;2023-02-23T05:26:26;97382.56;;;6.01;100.00
18795;BME280;29610;49.022;12.114;2023-02-23T05:28:55;97381.06;;;6.22;100.00
18795;BME280;29610;49.022;12.114;2023-02-23T05:31:24;97388.84;;;6.10;100.00
18795;BME280;29610;49.022;12.114;2023-02-23T05:33:53;97391.34;;;6.20;100.00
18795;BME280;29610;49.022;12.114;2023-02-23T05:36:22;97391.16;;;6.30;100.00
18795;BME280;29610;49.022;12.114;2023-02-23T05:38:50;97389.75;;;6.33;100.00
18795;BME280;29610;49.022;12.114;2023-02-23T05:41:21;97384.94;;;6.16;100.00
18795;BME280;29610;49.022;12.114;2023-02-23T05:43:53;97387.56;;;6.08;100.00
18795;BME280;29610;49.022;12.114;2023-02-23T05:46:25;97389.63;;;5.97;100.00
18795;BME280;29610;49.022;12.114;2023-02-23T05:48:56;97382.34;;;5.97;100.00
18795;BME280;29610;49.022;12.114;2023-02-23T05:51:28;97383.25;;;5.93;100.00
18795;BME280;29610;49.022;12.114;2023-02-23T05:53:57;97385.78;;;5.71;100.00
18795;BME280;29610;49.022;12.114;2023-02-23T05:56:25;97397.75;;;5.65;100.00
18795;BME280;29610;49.022;12.114;2023-02-23T05:58:57;97399.75;;;5.59;100.00
18795;BME280;29610;49.022;12.114;2023-02-23T06:01:27;97401.53;;;5.50;100.00
18795;BME280;29610;49.022;12.114;2023-02-23T06:03:56;97403.41;;;5.50;100.00
18795;BME280;29610;49.022;12.114;2023-02-23T06:06:24;97405.88;;;5.46;100.00
18795;BME280;29610;49.022;12.114;2023-02-23T06:08:54;97401.78;;;5.49;100.00
18795;BME280;29610;49.022;12.114;2023-02-23T06:11:23;97407.75;;;5.64;100.00
18795;BME280;29610;49.022;12.114;2023-02-23T06:13:51;97407.06;;;5.72;100.00
18795;BME280;29610;49.022;12.114;2023-02-23T06:16:21;97410.97;;;5.80;100.00
18795;BME280;29610;49.022;12.114;2023-02-23T06:18:50;97413.00;;;5.88;100.00
18795;BME280;29610;49.022;12.114;2023-02-23T06:21:19;97418.69;;;6.00;100.00
18795;BME280;29610;49.022;12.114;2023-02-23T06:23:48;97417.81;;;6.05;100.00
18795;BME280;29610;49.022;12.114;2023-02-23T06:26:16;97424.91;;;6.28;100.00
18795;BME280;29610;49.022;12.114;2023-02-23T06:28:45;97424.22;;;6.22;100.00
18795;BME280;29610;49.022;12.114;2023-02-23T06:31:14;97423.22;;;6.32;100.00
18795;BME280;29610;49.022;12.114;2023-02-23T06:33:44;97427.09;;;6.26;100.00
18795;BME280;29610;49.022;12.114;2023-02-23T06:36:13;97430.44;;;6.36;100.00
18795;BME280;29610;49.022;12.114;2023-02-23T06:38:42;97435.50;;;6.51;100.00
18795;BME280;29610;49.022;12.114;2023-02-23T06:41:12;97436.72;;;6.59;100.00
18795;BME280;29610;49.022;12.114;2023-02-23T06:43:41;97433.38;;;6.75;100.00
18795;BME280;29610;49.022;12.114;2023-02-23T06:46:10;97431.69;;;6.79;100.00
18795;BME280;29610;49.022;12.114;2023-02-23T06:48:39;97433.47;;;6.84;100.00
18795;BME280;29610;49.022;12.114;2023-02-23T06:51:09;97442.84;;;7.00;100.00
18795;BME280;29610;49.022;12.114;2023-02-23T06:53:38;97426.09;;;7.11;100.00
18795;BME280;29610;49.022;12.114;2023-02-23T06:56:07;97428.19;;;7.14;100.00
18795;BME280;29610;49.022;12.114;2023-02-23T06:58:38;97436.31;;;7.14;100.00
18795;BME280;29610;49.022;12.114;2023-02-23T07:01:07;97431.31;;;7.08;100.00
18795;BME280;29610;49.022;12.114;2023-02-23T07:03:36;97446.50;;;7.17;100.00
18795;BME280;29610;49.022;12.114;2023-02-23T07:06:05;97441.59;;;7.41;100.00
18795;BME280;29610;49.022;12.114;2023-02-23T07:08:35;97443.38;;;7.46;100.00
18795;BME280;29610;49.022;12.114;2023-02-23T07:11:06;97452.53;;;7.59;100.00
18795;BME280;29610;49.022;12.114;2023-02-23T07:13:35;97449.09;;;7.67;100.00
18795;BME280;29610;49.022;12.114;2023-02-23T07:16:05;97450.97;;;7.88;100.00
18795;BME280;29610;49.022;12.114;2023-02-23T07:18:34;97445.69;;;8.05;100.00
18795;BME280;29610;49.022;12.114;2023-02-23T07:21:03;97448.41;;;8.14;100.00
18795;BME280;29610;49.022;12.114;2023-02-23T07:23:32;97446.88;;;8.21;100.00
18795;BME280;29610;49.022;12.114;2023-02-23T07:26:02;97440.59;;;8.43;100.00
18795;BME280;29610;49.022;12.114;2023-02-23T07:28:31;97446.56;;;8.62;100.00
18795;BME280;29610;49.022;12.114;2023-02-23T07:31:00;97447.22;;;8.76;100.00
18795;BME280;29610;49.022;12.114;2023-02-23T07:33:29;97446.94;;;8.77;100.00
18795;BME280;29610;49.022;12.114;2023-02-23T07:35:59;97447.91;;;8.81;100.00
18795;BME280;29610;49.022;12.114;2023-02-23T07:38:27;97443.28;;;8.90;100.00
18795;BME280;29610;49.022;12.114;2023-02-23T07:40:56;97449.81;;;8.89;100.00
18795;BME280;29610;49.022;12.114;2023-02-23T07:43:26;97450.19;;;8.97;100.00
18795;BME280;29610;49.022;12.114;2023-02-23T07:45:59;97444.44;;;9.07;100.00
18795;BME280;29610;49.022;12.114;2023-02-23T07:48:28;97450.03;;;9.19;100.00
18795;BME280;29610;49.022;12.114;2023-02-23T07:50:57;97451.00;;;9.40;100.00
18795;BME280;29610;49.022;12.114;2023-02-23T07:53:34;97450.50;;;9.55;100.00
18795;BME280;29610;49.022;12.114;2023-02-23T07:56:16;97453.56;;;9.62;100.00
18795;BME280;29610;49.022;12.114;2023-02-23T07:58:48;97449.56;;;9.68;100.00
18795;BME280;29610;49.022;12.114;2023-02-23T08:01:17;97447.78;;;9.89;100.00
18795;BME280;29610;49.022;12.114;2023-02-23T08:03:46;97449.94;;;10.04;100.00
18795;BME280;29610;49.022;12.114;2023-02-23T08:06:16;97455.72;;;10.19;100.00
18795;BME280;29610;49.022;12.114;2023-02-23T08:08:45;97454.50;;;10.38;100.00
18795;BME280;29610;49.022;12.114;2023-02-23T08:11:14;97449.22;;;10.41;100.00
18795;BME280;29610;49.022;12.114;2023-02-23T08:13:48;97454.00;;;10.44;100.00
18795;BME280;29610;49.022;12.114;2023-02-23T08:16:16;97453.84;;;10.49;100.00
18795;BME280;29610;49.022;12.114;2023-02-23T08:18:45;97457.81;;;10.52;100.00
18795;BME280;29610;49.022;12.114;2023-02-23T08:21:14;97460.00;;;10.67;100.00
18795;BME280;29610;49.022;12.114;2023-02-23T08:23:43;97452.22;;;10.86;100.00
18795;BME280;29610;49.022;12.114;2023-02-23T08:26:12;97454.81;;;11.03;100.00
18795;BME280;29610;49.022;12.114;2023-02-23T08:28:41;97450.53;;;11.02;100.00
18795;BME280;29610;49.022;12.114;2023-02-23T08:31:15;97457.09;;;11.01;100.00
18795;BME280;29610;49.022;12.114;2023-02-23T08:33:45;97450.47;;;10.81;100.00
18795;BME280;29610;49.022;12.114;2023-02-23T08:36:14;97451.78;;;11.25;100.00
18795;BME280;29610;49.022;12.114;2023-02-23T08:38:43;97448.44;;;11.48;100.00
18795;BME280;29610;49.022;12.114;2023-02-23T08:41:12;97446.16;;;11.50;100.00
18795;BME280;29610;49.022;12.114;2023-02-23T08:43:41;97451.16;;;11.69;100.00
18795;BME280;29610;49.022;12.114;2023-02-23T08:46:10;97458.13;;;11.58;100.00
18795;BME280;29610;49.022;12.114;2023-02-23T08:48:41;97454.09;;;11.64;100.00
18795;BME280;29610;49.022;12.114;2023-02-23T08:51:10;97454.47;;;11.74;100.00
18795;BME280;29610;49.022;12.114;2023-02-23T08:53:39;97452.34;;;11.80;100.00
18795;BME280;29610;49.022;12.114;2023-02-23T08:56:09;97454.88;;;11.97;100.00
18795;BME280;29610;49.022;12.114;2023-02-23T08:58:39;97462.56;;;11.83;100.00
18795;BME280;29610;49.022;12.114;2023-02-23T09:01:15;97454.31;;;11.92;100.00
18795;BME280;29610;49.022;12.114;2023-02-23T09:03:46;97455.81;;;12.01;100.00
18795;BME280;29610;49.022;12.114;2023-02-23T09:06:20;97468.44;;;12.06;100.00
18795;BME280;29610;49.022;12.114;2023-02-23T09:08:50;97463.06;;;11.97;100.00
18795;BME280;29610;49.022;12.114;2023-02-23T09:11:19;97464.22;;;12.08;100.00
18795;BME280;29610;49.022;12.114;2023-02-23T09:13:48;97464.00;;;12.01;100.00
18795;BME280;29610;49.022;12.114;2023-02-23T09:16:17;97458.97;;;11.91;100.00
18795;BME280;29610;49.022;12.114;2023-02-23T09:18:48;97456.53;;;12.10;100.00
18795;BME280;29610;49.022;12.114;2023-02-23T09:21:19;97458.97;;;12.03;100.00
18795;BME280;29610;49.022;12.114;2023-02-23T09:23:52;97463.69;;;12.15;100.00
18795;BME280;29610;49.022;12.114;2023-02-23T09:26:23;97465.91;;;12.45;100.00
18795;BME280;29610;49.022;12.114;2023-02-23T09:28:52;97459.47;;;12.62;100.00
18795;BME280;29610;49.022;12.114;2023-02-23T09:31:22;97465.94;;;12.81;100.00
18795;BME280;29610;49.022;12.114;2023-02-23T09:33:53;97461.63;;;12.80;100.00
18795;BME280;29610;49.022;12.114;2023-02-23T09:36:24;97460.13;;;12.83;100.00
18795;BME280;29610;49.022;12.114;2023-02-23T09:38:55;97461.50;;;12.89;100.00
18795;BME280;29610;49.022;12.114;2023-02-23T09:42:06;97451.94;;;13.31;100.00
18795;BME280;29610;49.022;12.114;2023-02-23T09:44:55;97460.47;;;13.42;100.00
18795;BME280;29610;49.022;12.114;2023-02-23T09:47:50;97460.75;;;13.52;100.00
18795;BME280;29610;49.022;12.114;2023-02-23T09:50:29;97464.97;;;13.89;100.00
18795;BME280;29610;49.022;12.114;2023-02-23T09:53:02;97465.56;;;14.10;100.00
18795;BME280;29610;49.022;12.114;2023-02-23T09:55:33;97463.59;;;14.38;100.00
18795;BME280;29610;49.022;12.114;2023-02-23T09:58:07;97461.22;;;14.37;100.00
18795;BME280;29610;49.022;12.114;2023-02-23T10:00:43;97467.16;;;14.54;100.00
18795;BME280;29610;49.022;12.114;2023-02-23T10:03:25;97461.31;;;14.72;100.00
18795;BME280;29610;49.022;12.114;2023-02-23T10:06:01;97458.31;;;14.77;100.00
18795;BME280;29610;49.022;12.114;2023-02-23T10:08:50;97467.50;;;14.68;100.00
18795;BME280;29610;49.022;12.114;2023-02-23T10:11:27;97467.84;;;14.51;100.00
18795;BME280;29610;49.022;12.114;2023-02-23T10:14:22;97476.06;;;14.67;100.00
18795;BME280;29610;49.022;12.114;2023-02-23T10:17:12;97461.31;;;15.03;100.00
18795;BME280;29610;49.022;12.114;2023-02-23T10:19:57;97467.19;;;15.05;100.00
18795;BME280;29610;49.022;12.114;2023-02-23T10:22:33;97457.31;;;15.16;100.00
18795;BME280;29610;49.022;12.114;2023-02-23T10:25:10;97464.91;;;15.07;100.00
18795;BME280;29610;49.022;12.114;2023-02-23T10:27:44;97465.09;;;15.14;100.00
18795;BME280;29610;49.022;12.114;2023-02-23T10:30:21;97467.22;;;14.89;100.00
18795;BME280;29610;49.022;12.114;2023-02-23T10:32:58;97470.31;;;14.88;100.00
18795;BME280;29610;49.022;12.114;2023-02-23T10:35:29;97471.19;;;14.76;100.00
18795;BME280;29610;49.022;12.114;2023-02-23T10:38:00;97463.03;;;14.33;100.00
18795;BME280;29610;49.022;12.114;2023-02-23T10:40:32;97467.38;;;14.34;100.00
18795;BME280;29610;49.022;12.114;2023-02-23T10:43:02;97465.97;;;14.24;100.00
18795;BME280;29610;49.022;12.114;2023-02-23T10:45:38;97464.56;;;14.30;100.00
18795;BME280;29610;49.022;12.114;2023-02-23T10:48:16;97460.66;;;14.31;100.00
18795;BME280;29610;49.022;12.114;2023-02-23T10:50:49;97462.19;;;14.44;100.00
18795;BME280;29610;49.022;12.114;2023-02-23T10:53:23;97464.81;;;14.25;100.00
18795;BME280;29610;49.022;12.114;2023-02-23T10:56:04;97460.41;;;14.52;100.00
18795;BME280;29610;49.022;12.114;2023-02-23T10:58:40;97460.97;;;14.42;100.00
18795;BME280;29610;49.022;12.114;2023-02-23T11:01:13;97456.59;;;14.25;100.00
18795;BME280;29610;49.022;12.114;2023-02-23T11:03:46;97466.88;;;14.16;100.00
18795;BME280;29610;49.022;12.114;2023-02-23T11:06:33;97452.63;;;14.23;100.00
18795;BME280;29610;49.022;12.114;2023-02-23T11:09:22;97451.81;;;14.22;100.00
18795;BME280;29610;49.022;12.114;2023-02-23T11:12:18;97453.72;;;14.34;100.00
18795;BME280;29610;49.022;12.114;2023-02-23T11:14:49;97449.22;;;14.41;100.00
18795;BME280;29610;49.022;12.114;2023-02-23T11:17:27;97443.00;;;14.13;100.00
18795;BME280;29610;49.022;12.114;2023-02-23T11:20:03;97442.09;;;14.37;100.00
18795;BME280;29610;49.022;12.114;2023-02-23T11:22:35;97436.19;;;14.66;100.00
18795;BME280;29610;49.022;12.114;2023-02-23T11:25:20;97432.81;;;14.57;100.00
18795;BME280;29610;49.022;12.114;2023-02-23T11:27:52;97428.41;;;14.68;100.00
18795;BME280;29610;49.022;12.114;2023-02-23T11:30:27;97424.75;;;15.11;100.00
18795;BME280;29610;49.022;12.114;2023-02-23T11:33:01;97422.00;;;15.11;100.00
18795;BME280;29610;49.022;12.114;2023-02-23T11:35:37;97415.97;;;15.21;100.00
18795;BME280;29610;49.022;12.114;2023-02-23T11:38:21;97415.75;;;15.45;100.00
18795;BME280;29610;49.022;12.114;2023-02-23T11:41:00;97415.81;;;15.48;100.00
18795;BME280;29610;49.022;12.114;2023-02-23T11:43:30;97410.72;;;15.12;100.00
18795;BME280;29610;49.022;12.114;2023-02-23T11:46:01;97419.47;;;15.02;100.00
18795;BME280;29610;49.022;12.114;2023-02-23T11:48:34;97422.78;;;15.11;100.00
18795;BME280;29610;49.022;12.114;2023-02-23T11:51:05;97411.47;;;15.13;100.00
18795;BME280;29610;49.022;12.114;2023-02-23T11:53:38;97410.94;;;15.23;100.00
18795;BME280;29610;49.022;12.114;2023-02-23T11:56:09;97409.28;;;15.18;100.00
18795;BME280;29610;49.022;12.114;2023-02-23T11:58:43;97405.09;;;15.24;100.00
18795;BME280;29610;49.022;12.114;2023-02-23T12:01:16;97408.44;;;15.33;100.00
18795;BME280;29610;49.022;12.114;2023-02-23T12:03:50;97413.44;;;15.47;100.00
18795;BME280;29610;49.022;12.114;2023-02-23T12:06:30;97409.50;;;15.44;100.00
18795;BME280;29610;49.022;12.114;2023-02-23T12:09:11;97400.63;;;15.35;100.00
18795;BME280;29610;49.022;12.114;2023-02-23T12:11:52;97400.28;;;15.52;100.00
18795;BME280;29610;49.022;12.114;2023-02-23T12:14:31;97401.69;;;15.46;100.00
18795;BME280;29610;49.022;12.114;2023-02-23T12:17:05;97389.00;;;15.57;100.00
18795;BME280;29610;49.022;12.114;2023-02-23T12:19:40;97397.94;;;15.54;100.00
18795;BME280;29610;49.022;12.114;2023-02-23T12:22:17;97394.13;;;15.40;100.00
18795;BME280;29610;49.022;12.114;2023-02-23T12:24:53;97403.66;;;15.46;100.00
18795;BME280;29610;49.022;12.114;2023-02-23T12:27:35;97395.16;;;15.35;100.00
18795;BME280;29610;49.022;12.114;2023-02-23T12:30:16;97389.31;;;15.52;100.00
18795;BME280;29610;49.022;12.114;2023-02-23T12:32:54;97385.41;;;15.72;100.00
18795;BME280;29610;49.022;12.114;2023-02-23T12:35:29;97394.72;;;15.68;100.00
18795;BME280;29610;49.022;12.114;2023-02-23T12:38:09;97388.59;;;15.74;100.00
18795;BME280;29610;49.022;12.114;2023-02-23T12:40:43;97389.59;;;15.85;100.00
18795;BME280;29610;49.022;12.114;2023-02-23T12:43:20;97381.72;;;15.84;100.00
18795;BME280;29610;49.022;12.114;2023-02-23T12:45:56;97377.84;;;16.07;100.00
18795;BME280;29610;49.022;12.114;2023-02-23T12:48:43;97375.72;;;16.20;100.00
18795;BME280;29610;49.022;12.114;2023-02-23T12:51:23;97384.47;;;16.26;100.00
18795;BME280;29610;49.022;12.114;2023-02-23T12:53:53;97376.09;;;16.19;100.00
18795;BME280;29610;49.022;12.114;2023-02-23T12:56:45;97368.97;;;16.37;100.00
18795;BME280;29610;49.022;12.114;2023-02-23T12:59:44;97368.50;;;16.54;100.00
18795;BME280;29610;49.022;12.114;2023-02-23T13:02:26;97366.66;;;16.61;100.00
18795;BME280;29610;49.022;12.114;2023-02-23T13:05:17;97366.38;;;16.02;100.00
18795;BME280;29610;49.022;12.114;2023-02-23T13:08:10;97362.94;;;16.05;100.00
18795;BME280;29610;49.022;12.114;2023-02-23T13:10:55;97355.56;;;16.09;100.00
18795;BME280;29610;49.022;12.114;2023-02-23T13:13:36;97357.63;;;16.16;100.00
18795;BME280;29610;49.022;12.114;2023-02-23T13:16:18;97356.44;;;16.13;100.00
18795;BME280;29610;49.022;12.114;2023-02-23T13:19:04;97355.88;;;16.27;100.00
18795;BME280;29610;49.022;12.114;2023-02-23T13:21:43;97353.84;;;16.01;100.00
18795;BME280;29610;49.022;12.114;2023-02-23T13:24:18;97349.72;;;16.10;100.00
18795;BME280;29610;49.022;12.114;2023-02-23T13:26:58;97350.22;;;16.16;100.00
18795;BME280;29610;49.022;12.114;2023-02-23T13:29:35;97355.53;;;15.86;100.00
18795;BME280;29610;49.022;12.114;2023-02-23T13:32:12;97348.53;;;16.11;100.00